Hastings Natural History Reservation, California Weather observations

Data are for 10 minute period ending at time listed.
 Day   Time   Solar   Ave.   Ave.  Ave.  Vector  Max.   Baro.   Total    
  of    of     Rad.   Air    Rel.  Wind   Wind   Wind  Press.  Precip.   
Year   Day            Temp.  Hum.  Speed  Dir.   Gust                    
2017   (PST)  Kw/m2    F      %     mph   deg.    mph    mb.     in.     
-------------------------------------------------------------------------
 146    0:00   0.00   52.9    77    1.8   275     4.5   948.3    0.00 
 146    0:10   0.00   52.6    77    1.6   281     3.9   948.3    0.00 
 146    0:20   0.00   52.8    77    1.7   271     3.4   948.3    0.00 
 146    0:30   0.00   52.5    77    1.5   268     4.7   948.3    0.00 
 146    0:40   0.00   52.6    76    1.4   283     2.9   948.3    0.00 
 146    0:50   0.00   52.5    76    2.0   269     4.4   948.3    0.00 
 146    1:00   0.00   52.4    76    1.9   264     4.2   948.3    0.00 
 146    1:10   0.00   52.4    76    1.5   280     2.7   948.4    0.00 
 146    1:20   0.00   52.2    76    2.5   260     5.3   948.4    0.00 
 146    1:30   0.00   52.3    76    1.4   297     3.9   948.5    0.00 
 146    1:40   0.00   52.1    76    2.3   267     5.4   948.5    0.00 
 146    1:50   0.00   52.0    75    1.7   303     3.9   948.6    0.00 
 146    2:00   0.00   51.7    76    3.0   257     5.8   948.6    0.00 
 146    2:10   0.00   51.6    76    2.2   256     5.8   948.6    0.00 
 146    2:20   0.00   51.5    76    2.5   252     6.6   948.6    0.00 
 146    2:30   0.00   51.6    75    1.8   264     4.6   948.5    0.00 
 146    2:40   0.00   51.6    75    1.4   257     3.3   948.6    0.00 
 146    2:50   0.00   51.5    75    1.0   281     3.1   948.7    0.00 
 146    3:00   0.00   51.5    75    1.3   265     4.5   948.7    0.00 
 146    3:10   0.00   51.5    75    1.5   264     3.8   948.7    0.00 
 146    3:20   0.00   51.3    74    1.6   263     3.9   948.7    0.00 
 146    3:30   0.00   51.3    74    1.4   252     4.3   948.8    0.00 
 146    3:40   0.00   51.3    74    0.5   331     2.3   948.8    0.00 
 146    3:50   0.00   51.4    74    0.7   353     2.3   948.8    0.00 
 146    4:00   0.00   51.4    73    0.8   309     2.5   948.9    0.00 
 146    4:10   0.00   51.4    72    0.6   355     2.0   948.9    0.00 
 146    4:20   0.00   51.2    72    1.2   271     2.7   948.8    0.00 
 146    4:30   0.00   51.1    72    0.9   270     2.8   948.9    0.00 
 146    4:40   0.00   51.1    72    1.0   253     2.9   949.0    0.00 
 146    4:50   0.00   51.1    72    1.3   268     4.3   949.1    0.00 
 146    5:00   0.00   51.1    71    0.6    27     2.4   949.2    0.00 
 146    5:10   0.00   51.2    70    0.5    35     2.0   949.3    0.00 
 146    5:20   0.00   51.3    70    0.6    47     3.0   949.4    0.00 
 146    5:30   0.01   51.1    70    1.9    47     3.4   949.4    0.00 
 146    5:40   0.01   51.4    69    0.9    52     2.3   949.5    0.00 
 146    5:50   0.02   51.4    69    1.0    43     4.8   949.7    0.00 
 146    6:00   0.03   51.2    69    1.1    18     3.2   949.7    0.00 
 146    6:10   0.04   51.4    68    1.7    44     4.5   949.8    0.00 
 146    6:20   0.05   51.4    68    2.2    37     5.4   949.9    0.00 
 146    6:30   0.05   51.5    68    1.9    35     5.0   950.0    0.00 
 146    6:40   0.07   51.8    67    1.1    54     3.9   950.1    0.00 
 146    6:50   0.07   51.9    66    1.9    15     4.6   950.2    0.00 
 146    7:00   0.09   51.9    66    3.0    41     6.7   950.2    0.00 
 146    7:10   0.11   52.2    65    2.3    30     4.8   950.3    0.00 
 146    7:20   0.13   52.3    65    1.5   351     4.0   950.3    0.00 
 146    7:30   0.15   52.8    64    2.2    24     5.3   950.4    0.00 
 146    7:40   0.17   53.1    63    2.0     8     4.9   950.5    0.00 
 146    7:50   0.20   53.2    63    1.4   297     4.2   950.7    0.00 
 146    8:00   0.21   53.6    62    1.0   357     3.7   950.8    0.00 
 146    8:10   0.23   54.0    61    1.9   293     5.3   950.8    0.00 
 146    8:20   0.33   54.1    61    1.7     9     4.4   950.8    0.00 
 146    8:30   0.42   55.4    59    1.6    18     4.5   950.9    0.00 
 146    8:40   0.74   56.4    57    1.9    38     8.6   950.9    0.00 
 146    8:50   0.73   57.6    55    2.2   288     7.5   950.9    0.00 
 146    9:00   0.71   57.9    54    2.6    28     7.7   950.8    0.00 
 146    9:10   0.71   58.4    53    1.5   284     4.7   950.8    0.00 
 146    9:20   0.71   57.5    55    2.7    56     8.1   950.9    0.00 
 146    9:30   0.72   59.0    53    1.2   288     3.2   950.9    0.00 
 146    9:40   0.73   59.8    52    1.6   359     5.0   950.8    0.00 
 146    9:50   0.76   60.8    50    1.8    23     5.6   950.8    0.00 
 146   10:00   0.78   60.7    50    3.3    54     6.4   950.7    0.00 
 146   10:10   0.80   60.2    51    2.1   341     8.7   950.7    0.00 
 146   10:20   0.81   62.5    48    1.2   358     4.5   950.7    0.00 
 146   10:30   0.83   62.5    48    2.5   349     6.2   950.6    0.00 
 146   10:40   0.80   63.1    47    1.6    45     5.6   950.6    0.00 
 146   10:50   0.85   63.1    47    1.6   354     5.6   950.6    0.00 
 146   11:00   0.88   63.8    47    3.1   251     8.1   950.6    0.00 
 146   11:10   0.88   64.1    46    2.3   301     5.3   950.6    0.00 
 146   11:20   0.89   64.4    46    3.6    62     7.8   950.5    0.00 
 146   11:30   0.88   65.4    45    3.0    31     6.4   950.5    0.00 
 146   11:40   0.89   64.8    48    3.5   259     9.1   950.6    0.00 
 146   11:50   0.89   65.6    48    3.0   264     8.6   950.7    0.00 
 146   12:00   0.90   64.6    50    5.2   240    11.0   950.8    0.00 
 146   12:10   0.89   66.1    48    3.6   259    10.2   950.8    0.00 
 146   12:20   0.90   66.8    47    2.0   287     6.4   950.9    0.00 
 146   12:30   0.91   67.2    48    3.2   276    10.4   950.9    0.00 
 146   12:40   0.91   66.0    50    4.2   255    10.7   951.0    0.00 
 146   12:50   0.91   65.1    52    5.4   251    10.4   951.0    0.00 
 146   13:00   0.92   65.9    51    4.3   252    10.8   950.9    0.00 
 146   13:10   0.91   66.8    50    3.4   270     9.4   950.9    0.00 
 146   13:20   0.90   66.6    50    3.8   252     8.5   950.8    0.00 
 146   13:30   0.89   67.5    49    3.1   273    10.1   950.8    0.00 
 146   13:40   0.88   68.4    47    2.3   281     9.1   950.8    0.00 
 146   13:50   0.86   66.5    50    4.5   252    11.5   950.8    0.00 
 146   14:00   0.84   66.3    51    4.1   252    12.6   950.8    0.00 
 146   14:10   0.83   65.8    52    5.5   244    12.3   950.8    0.00 
 146   14:20   0.81   65.3    53    3.8   262     9.1   951.0    0.00 
 146   14:30   0.79   65.6    52    4.0   254    10.6   951.0    0.00 
 146   14:40   0.77   65.1    53    5.1   254    11.3   950.9    0.00 
 146   14:50   0.75   63.7    55    6.3   246    11.5   950.9    0.00 
 146   15:00   0.73   64.4    54    4.3   259    12.4   950.9    0.00 
 146   15:10   0.71   64.0    55    4.2   253    10.2   951.0    0.00 
 146   15:20   0.69   63.2    56    3.9   256     9.9   951.0    0.00 
 146   15:30   0.66   64.1    55    3.1   258     9.1   951.0    0.00 
 146   15:40   0.64   63.5    56    3.6   267     9.2   951.1    0.00 
 146   15:50   0.61   63.0    57    3.1   262    10.2   951.2    0.00 
 146   16:00   0.59   62.3    58    3.9   256    10.2   951.2    0.00 
 146   16:10   0.56   62.5    58    3.0   256     6.7   951.3    0.00 
 146   16:20   0.53   62.0    59    3.3   261     8.8   951.4    0.00 
 146   16:30   0.50   62.4    58    2.8   286     9.8   951.4    0.00 
 146   16:40   0.47   61.5    59    2.4   273     9.7   951.5    0.00 
 146   16:50   0.37   59.5    63    4.2   251    12.0   951.6    0.00 
 146   17:00   0.15   57.2    67    3.4   254     9.2   951.7    0.00 
 146   17:10   0.16   55.9    70    4.4   248     8.0   951.8    0.00 
 146   17:20   0.12   55.1    72    4.6   247     8.6   952.0    0.00 
 146   17:30   0.09   54.8    72    3.5   251     8.4   952.1    0.00 
 146   17:40   0.07   54.5    73    2.8   262     7.0   952.2    0.00 
 146   17:50   0.06   54.0    74    3.1   248     6.9   952.2    0.00 
 146   18:00   0.05   53.6    75    2.8   262     6.9   952.3    0.00 
 146   18:10   0.04   53.6    75    2.6   270     6.4   952.3    0.00 
 146   18:20   0.03   53.0    76    2.6   259     6.1   952.4    0.00 
 146   18:30   0.02   52.8    76    3.3   254     7.1   952.5    0.00 
 146   18:40   0.01   52.7    77    1.9   258     4.7   952.7    0.00 
 146   18:50   0.01   52.2    78    3.1   248     5.7   952.7    0.00 
 146   19:00   0.00   52.0    78    2.2   254     5.9   952.8    0.00 
 146   19:10   0.00   51.9    79    2.2   252     3.9   952.9    0.00 
 146   19:20   0.00   51.5    79    1.4   264     4.7   952.9    0.00 
 146   19:30   0.00   51.3    80    2.5   245     5.8   953.0    0.00 
 146   19:40   0.00   50.9    81    2.3   244     4.6   953.1    0.00 
 146   19:50   0.00   50.6    82    2.7   236     4.9   953.2    0.00 
 146   20:00   0.00   50.4    83    2.7   226     4.2   953.2    0.00 
 146   20:10   0.00   50.1    84    2.7   227     4.7   953.3    0.00 
 146   20:20   0.00   50.1    85    1.6   241     3.7   953.3    0.00 
 146   20:30   0.00   49.8    86    2.5   243     4.1   953.4    0.00 
 146   20:40   0.00   49.8    88    1.3   240     3.3   953.5    0.00 
 146   20:50   0.00   49.9    88    1.7   226     2.8   953.7    0.00 
 146   21:00   0.00   49.8    88    1.5   230     3.6   953.8    0.00 
 146   21:10   0.00   50.0    88    1.6   230     3.1   953.9    0.00 
 146   21:20   0.00   50.0    88    1.0   254     2.6   953.9    0.00 
 146   21:30   0.00   50.1    88    0.8   260     2.7   954.0    0.00 
 146   21:40   0.00   50.0    88    1.2   250     2.6   954.0    0.00 
 146   21:50   0.00   50.1    88    0.4   250     1.5   954.1    0.00 
 146   22:00   0.00   50.1    88    1.1   246     2.4   954.0    0.00 
 146   22:10   0.00   50.1    88    1.4   240     2.6   954.0    0.00 
 146   22:20   0.00   50.3    88    0.9   238     2.3   954.0    0.00 
 146   22:30   0.00   50.2    87    1.2   237     2.2   954.0    0.00 
 146   22:40   0.00   50.4    87    0.5   233     1.9   954.0    0.00 
 146   22:50   0.00   50.5    86    0.7   249     1.5   953.9    0.00 
 146   23:00   0.00   50.5    86    0.1   320     1.2   953.9    0.00 
 146   23:10   0.00   50.7    85    0.5   233     2.3   953.9    0.00 
 146   23:20   0.00   50.5    85    0.9   239     2.1   953.9    0.00 
 146   23:30   0.00   50.5    85    1.4   243     2.3   953.9    0.00 
 146   23:40   0.00   50.5    84    1.1    16     3.7   953.9    0.00 
 146   23:50   0.00   50.3    81    2.2    36     4.6   953.8    0.00 

Return to Hastings Natural History Reservation graphs page.


Western Regional Climate Center,wrcc@dri.edu